createdAt,value
2023-01-17T00:00:38.622Z,75.72
2023-01-17T00:04:24.884Z,75.46
2023-01-17T00:08:11.314Z,75.99
2023-01-17T00:11:38.655Z,75.96
2023-01-17T00:15:26.388Z,75.84
2023-01-17T00:19:12.495Z,76.07
2023-01-17T00:22:58.529Z,76.13
2023-01-17T00:26:45.159Z,76.14
2023-01-17T00:30:12.568Z,77.04
2023-01-17T00:33:39.925Z,76.64
2023-01-17T00:37:07.346Z,76.52
2023-01-17T00:40:34.719Z,76.49
2023-01-17T00:44:20.863Z,76.59
2023-01-17T00:48:06.985Z,76.55
2023-01-17T00:51:53.301Z,76.56
2023-01-17T00:55:39.382Z,76.84
2023-01-17T00:59:25.723Z,76.51
2023-01-17T01:03:12.014Z,76.44
2023-01-17T01:06:58.489Z,76.42
2023-01-17T01:10:44.822Z,76.55
2023-01-17T01:14:31.213Z,76.46
2023-01-17T01:17:56.753Z,76.47
2023-01-17T01:21:42.949Z,76.61
2023-01-17T01:25:29.231Z,76.34
2023-01-17T01:29:15.494Z,75.92
2023-01-17T01:32:41.248Z,75.68
2023-01-17T01:36:31.700Z,76.08
2023-01-17T01:40:19.405Z,75.95
2023-01-17T01:44:22.192Z,76.00
2023-01-17T01:48:12.629Z,76.30
2023-01-17T01:52:00.022Z,76.45
2023-01-17T01:55:47.804Z,76.53
2023-01-17T01:59:35.484Z,76.50
2023-01-17T02:03:23.288Z,76.52
2023-01-17T02:07:13.681Z,76.11
2023-01-17T02:11:01.424Z,76.13
2023-01-17T02:14:49.476Z,76.06
2023-01-17T02:18:35.655Z,76.21
2023-01-17T02:22:41.449Z,75.98
2023-01-17T02:26:47.236Z,76.19
2023-01-17T02:30:52.888Z,76.16
2023-01-17T02:34:40.736Z,76.03
2023-01-17T02:38:40.447Z,76.16
2023-01-17T02:42:28.216Z,75.72
2023-01-17T02:46:15.965Z,75.74
2023-01-17T02:50:06.607Z,75.62
2023-01-17T02:54:12.514Z,75.24
2023-01-17T02:58:06.039Z,75.59
2023-01-17T03:01:59.883Z,75.66
2023-01-17T03:05:53.843Z,75.31
2023-01-17T03:09:41.606Z,75.47
2023-01-17T03:13:29.385Z,75.37
2023-01-17T03:17:17.125Z,75.11
2023-01-17T03:21:04.974Z,75.65
2023-01-17T03:24:52.704Z,75.54
2023-01-17T03:28:40.414Z,75.28
2023-01-17T03:32:28.134Z,74.69
2023-01-17T03:36:16.061Z,75.01
2023-01-17T03:40:03.794Z,75.08
2023-01-17T03:43:51.527Z,75.04
2023-01-17T03:47:39.303Z,75.10
2023-01-17T03:51:27.051Z,75.04
2023-01-17T03:55:14.937Z,74.91
2023-01-17T03:59:02.733Z,74.96
2023-01-17T04:02:50.567Z,75.02
2023-01-17T04:06:38.575Z,74.82
2023-01-17T04:10:26.294Z,74.62
2023-01-17T04:14:14.071Z,75.10
2023-01-17T04:18:01.871Z,75.10
2023-01-17T04:21:49.627Z,75.73
2023-01-17T04:25:37.436Z,75.97
2023-01-17T04:29:25.115Z,76.25
2023-01-17T04:33:13.066Z,76.28
2023-01-17T04:37:00.945Z,77.12
2023-01-17T04:40:48.858Z,76.86
2023-01-17T04:44:36.572Z,76.60
2023-01-17T04:48:24.408Z,76.99
2023-01-17T04:52:12.216Z,76.86
2023-01-17T04:56:00.807Z,77.34
2023-01-17T04:59:48.586Z,77.33
2023-01-17T05:03:36.285Z,77.33
2023-01-17T05:07:24.274Z,77.44
2023-01-17T05:11:13.386Z,77.55
2023-01-17T05:15:01.184Z,78.34
2023-01-17T05:18:51.622Z,77.77
2023-01-17T05:22:40.553Z,78.52
2023-01-17T05:26:28.375Z,78.58
2023-01-17T05:30:16.230Z,78.44
2023-01-17T05:34:05.147Z,78.90
2023-01-17T05:37:53.232Z,79.24
2023-01-17T05:41:40.973Z,78.91
2023-01-17T05:45:28.770Z,78.97
2023-01-17T05:49:16.525Z,78.54
2023-01-17T05:53:04.642Z,78.57
2023-01-17T05:56:52.405Z,78.70
2023-01-17T06:00:40.105Z,78.97
2023-01-17T06:04:28.492Z,79.41
2023-01-17T06:08:16.641Z,80.34
2023-01-17T06:12:04.427Z,80.08
2023-01-17T06:15:52.221Z,79.65
2023-01-17T06:19:40.028Z,80.00
2023-01-17T06:23:27.908Z,79.92
2023-01-17T06:27:15.728Z,80.02
2023-01-17T06:31:03.717Z,80.19
2023-01-17T06:34:44.098Z,80.18
2023-01-17T06:38:32.665Z,80.42
2023-01-17T06:42:20.120Z,80.96
2023-01-17T06:46:08.067Z,81.14
2023-01-17T06:49:55.907Z,81.09
2023-01-17T06:53:44.684Z,81.81
2023-01-17T06:57:33.167Z,80.84
2023-01-17T07:01:21.856Z,80.56
2023-01-17T07:05:09.967Z,80.53
2023-01-17T07:08:58.060Z,80.80
2023-01-17T07:12:46.774Z,81.78
2023-01-17T07:16:34.652Z,81.68
2023-01-17T07:20:22.589Z,81.91
2023-01-17T07:24:10.329Z,81.86
2023-01-17T07:27:58.238Z,82.14
2023-01-17T07:31:45.993Z,82.47
2023-01-17T07:35:33.862Z,82.62
2023-01-17T07:39:21.951Z,82.09
2023-01-17T07:43:09.793Z,82.01
2023-01-17T07:46:57.951Z,82.72
2023-01-17T07:50:45.862Z,82.84
2023-01-17T07:54:33.753Z,83.01
2023-01-17T07:58:21.645Z,82.19
2023-01-17T08:02:09.807Z,82.16
2023-01-17T08:05:57.676Z,82.71
2023-01-17T08:09:45.865Z,82.03
2023-01-17T08:13:34.934Z,82.30
2023-01-17T08:17:23.077Z,82.41
2023-01-17T08:21:11.744Z,82.41
2023-01-17T08:24:59.815Z,82.05
2023-01-17T08:28:47.826Z,81.69
2023-01-17T08:32:35.752Z,81.67
2023-01-17T08:36:32.768Z,81.44
2023-01-17T08:40:20.758Z,81.55
2023-01-17T08:44:08.510Z,81.38
2023-01-17T08:47:56.378Z,81.37
2023-01-17T08:51:44.217Z,81.36
2023-01-17T08:55:32.193Z,81.70
2023-01-17T08:59:20.012Z,81.27
2023-01-17T09:03:07.826Z,81.78
2023-01-17T09:07:07.568Z,82.07
2023-01-17T09:10:56.434Z,82.42
2023-01-17T09:14:44.851Z,81.92
2023-01-17T09:18:35.661Z,81.80
2023-01-17T09:22:24.747Z,81.96
2023-01-17T09:26:12.505Z,81.66
2023-01-17T09:30:00.390Z,81.73
2023-01-17T09:33:54.235Z,81.96
2023-01-17T09:37:42.176Z,82.54
2023-01-17T09:41:31.239Z,82.07
2023-01-17T09:45:25.005Z,83.11
2023-01-17T09:49:13.696Z,83.12
2023-01-17T09:53:01.512Z,83.97
2023-01-17T09:56:58.764Z,83.40
2023-01-17T10:00:58.408Z,83.55
2023-01-17T10:04:49.087Z,83.36
2023-01-17T10:09:01.125Z,83.09
2023-01-17T10:13:01.411Z,83.18
2023-01-17T10:17:06.148Z,82.67
2023-01-17T10:20:52.117Z,82.86
2023-01-17T10:24:49.950Z,82.88
2023-01-17T10:28:41.133Z,82.56
2023-01-17T10:32:32.485Z,82.51
2023-01-17T10:36:20.237Z,82.64
2023-01-17T10:40:20.361Z,82.86
2023-01-17T10:44:23.374Z,82.88
2023-01-17T10:48:11.964Z,83.03
2023-01-17T10:52:05.359Z,82.57
2023-01-17T10:55:52.273Z,82.42
2023-01-17T10:59:51.643Z,82.07
2023-01-17T11:03:39.674Z,82.21
2023-01-17T11:07:28.769Z,82.47
2023-01-17T11:11:19.309Z,82.18
2023-01-17T11:15:07.268Z,82.30
2023-01-17T11:19:00.970Z,83.37
2023-01-17T11:22:51.530Z,83.65
2023-01-17T11:26:42.103Z,77.46
2023-01-17T11:30:43.190Z,75.98
2023-01-17T11:34:46.920Z,74.98
2023-01-17T11:38:37.444Z,76.00
2023-01-17T11:42:25.864Z,76.48
2023-01-17T11:46:44.347Z,75.90
2023-01-17T11:50:32.919Z,77.40
2023-01-17T11:54:29.852Z,74.68
2023-01-17T11:58:26.762Z,74.75
2023-01-17T12:02:12.444Z,74.86
2023-01-17T12:06:12.821Z,75.96
2023-01-17T12:10:15.794Z,74.92
2023-01-17T12:14:23.153Z,72.14
2023-01-17T12:18:30.736Z,63.98
2023-01-17T12:22:21.774Z,63.87
2023-01-17T12:26:24.614Z,65.44
2023-01-17T12:30:30.300Z,60.30
2023-01-17T12:34:27.026Z,62.17
2023-01-17T12:38:27.637Z,60.89
2023-01-17T12:42:33.239Z,63.53
2023-01-17T12:46:24.610Z,63.58
2023-01-17T12:50:15.551Z,64.29
2023-01-17T12:54:01.781Z,63.61
2023-01-17T12:58:05.524Z,64.27
2023-01-17T13:02:00.922Z,64.40
2023-01-17T13:05:57.784Z,64.77
2023-01-17T13:09:45.799Z,64.74
2023-01-17T13:13:33.821Z,63.70
2023-01-17T13:17:24.624Z,63.84
2023-01-17T13:21:15.637Z,62.46
2023-01-17T13:25:06.303Z,60.62
2023-01-17T13:28:58.295Z,60.94
2023-01-17T13:32:52.725Z,60.61
2023-01-17T13:36:49.415Z,59.83
2023-01-17T13:40:40.021Z,61.66
2023-01-17T13:44:42.738Z,63.64
2023-01-17T13:48:30.634Z,65.03
2023-01-17T13:52:17.134Z,64.83
2023-01-17T13:56:04.937Z,65.00
2023-01-17T13:59:53.775Z,65.60
2023-01-17T14:03:41.877Z,64.62
2023-01-17T14:07:38.919Z,64.78
2023-01-17T14:11:09.025Z,65.94
2023-01-17T14:14:59.756Z,65.41
2023-01-17T14:18:47.620Z,65.72
2023-01-17T14:22:34.169Z,66.30
2023-01-17T14:26:25.148Z,66.94
2023-01-17T14:30:10.765Z,68.00
2023-01-17T14:34:01.509Z,67.92
2023-01-17T14:37:51.852Z,67.32
2023-01-17T14:41:43.096Z,68.12
2023-01-17T14:45:30.927Z,67.40
2023-01-17T14:49:18.685Z,67.68
2023-01-17T14:53:07.812Z,68.30
2023-01-17T14:56:55.646Z,68.74
2023-01-17T15:00:49.106Z,69.48
2023-01-17T15:04:43.842Z,69.42
2023-01-17T15:08:31.695Z,69.86
2023-01-17T15:12:22.353Z,70.27
2023-01-17T15:16:29.281Z,70.99
2023-01-17T15:20:24.376Z,71.03
2023-01-17T15:24:16.181Z,70.64
2023-01-17T15:28:05.819Z,71.29
2023-01-17T15:32:11.880Z,70.84
2023-01-17T15:36:00.186Z,71.48
2023-01-17T15:39:58.837Z,71.72
2023-01-17T15:43:46.888Z,72.52
2023-01-17T15:47:40.675Z,72.44
2023-01-17T15:51:28.613Z,72.86
2023-01-17T15:55:26.575Z,74.26
2023-01-17T15:59:23.533Z,73.11
2023-01-17T16:03:10.615Z,72.81
2023-01-17T16:07:07.870Z,74.43
2023-01-17T16:10:48.870Z,75.05
2023-01-17T16:14:53.605Z,75.13
2023-01-17T16:18:50.451Z,76.01
2023-01-17T16:22:38.363Z,74.92
2023-01-17T16:26:29.562Z,75.57
2023-01-17T16:30:17.505Z,74.67
2023-01-17T16:34:05.447Z,74.47
2023-01-17T16:37:53.760Z,74.57
2023-01-17T16:41:43.127Z,74.69
2023-01-17T16:45:31.721Z,75.29
2023-01-17T16:49:20.300Z,75.52
2023-01-17T16:53:08.224Z,75.87
2023-01-17T16:56:58.920Z,75.97
2023-01-17T17:00:49.736Z,76.44
2023-01-17T17:04:37.763Z,76.21
2023-01-17T17:08:26.006Z,75.88
2023-01-17T17:12:19.321Z,75.57
2023-01-17T17:16:08.161Z,74.85
2023-01-17T17:19:56.608Z,75.33
2023-01-17T17:23:45.027Z,75.47
2023-01-17T17:27:34.210Z,75.54
2023-01-17T17:31:22.223Z,75.38
2023-01-17T17:35:13.056Z,75.17
2023-01-17T17:39:00.734Z,75.66
2023-01-17T17:42:48.626Z,75.75
2023-01-17T17:46:36.539Z,75.63
2023-01-17T17:50:27.465Z,75.86
2023-01-17T17:54:15.246Z,75.61
2023-01-17T17:58:03.376Z,75.46
2023-01-17T18:01:51.286Z,75.31
2023-01-17T18:05:40.265Z,75.35
2023-01-17T18:09:27.981Z,75.39
2023-01-17T18:13:17.298Z,75.42
2023-01-17T18:17:05.711Z,75.29
2023-01-17T18:20:53.597Z,75.18
2023-01-17T18:24:41.484Z,75.34
2023-01-17T18:28:29.951Z,75.57
2023-01-17T18:32:17.783Z,75.12
2023-01-17T18:36:05.677Z,75.55
2023-01-17T18:39:53.545Z,75.43
2023-01-17T18:43:41.504Z,75.18
2023-01-17T18:47:29.398Z,75.22
2023-01-17T18:51:17.982Z,75.18
2023-01-17T18:55:05.998Z,75.40
2023-01-17T18:58:55.007Z,75.52
2023-01-17T19:02:43.213Z,75.27
2023-01-17T19:06:31.056Z,74.42
2023-01-17T19:10:18.897Z,74.14
2023-01-17T19:14:06.715Z,74.40
2023-01-17T19:17:55.994Z,74.30
2023-01-17T19:21:47.803Z,73.96
2023-01-17T19:25:36.914Z,73.64
2023-01-17T19:29:24.975Z,73.43
2023-01-17T19:33:13.029Z,73.14
2023-01-17T19:37:00.705Z,73.32
2023-01-17T19:40:48.891Z,73.53
2023-01-17T19:44:37.129Z,73.48
2023-01-17T19:48:25.824Z,73.60
2023-01-17T19:52:14.118Z,73.30
2023-01-17T19:56:01.865Z,73.57
2023-01-17T19:59:50.774Z,73.70
2023-01-17T20:03:38.604Z,74.05
2023-01-17T20:07:26.391Z,74.06
2023-01-17T20:11:15.138Z,74.21
2023-01-17T20:15:04.150Z,73.67
2023-01-17T20:18:52.115Z,74.04
2023-01-17T20:22:39.963Z,74.18
2023-01-17T20:26:28.377Z,74.21
2023-01-17T20:30:20.410Z,74.06
2023-01-17T20:34:12.678Z,74.48
2023-01-17T20:38:00.547Z,74.53
2023-01-17T20:41:55.121Z,74.69
2023-01-17T20:45:43.667Z,74.76
2023-01-17T20:49:34.904Z,74.78
2023-01-17T20:53:22.591Z,74.37
2023-01-17T20:57:11.349Z,74.50
2023-01-17T21:00:59.468Z,74.35
2023-01-17T21:04:47.288Z,74.54
2023-01-17T21:08:35.006Z,74.76
2023-01-17T21:12:22.862Z,74.65
2023-01-17T21:16:10.742Z,74.84
2023-01-17T21:19:58.752Z,74.56
2023-01-17T21:23:47.134Z,74.89
2023-01-17T21:27:34.938Z,75.15
2023-01-17T21:31:22.954Z,75.05
2023-01-17T21:35:10.763Z,74.95
2023-01-17T21:38:58.554Z,74.94
2023-01-17T21:42:46.576Z,74.94
2023-01-17T21:46:37.344Z,74.95
2023-01-17T21:50:32.391Z,75.85
2023-01-17T21:54:21.361Z,74.95
2023-01-17T21:58:07.674Z,75.49
2023-01-17T22:01:58.732Z,75.33
2023-01-17T22:05:46.847Z,75.15
2023-01-17T22:09:34.589Z,75.34
2023-01-17T22:13:22.557Z,75.05
2023-01-17T22:17:10.319Z,75.28
2023-01-17T22:20:58.103Z,75.22
2023-01-17T22:24:45.810Z,75.22
2023-01-17T22:28:33.520Z,74.69
2023-01-17T22:32:21.387Z,74.66
2023-01-17T22:36:09.129Z,74.52
2023-01-17T22:39:56.887Z,74.55
2023-01-17T22:43:44.646Z,73.56
2023-01-17T22:47:32.425Z,73.10
2023-01-17T22:51:20.141Z,73.79
2023-01-17T22:55:07.940Z,72.27
2023-01-17T22:58:55.663Z,71.23
2023-01-17T23:02:43.591Z,70.35
2023-01-17T23:06:31.380Z,69.58
2023-01-17T23:10:19.093Z,69.06
2023-01-17T23:14:06.787Z,69.48
2023-01-17T23:17:55.736Z,69.60
2023-01-17T23:21:43.436Z,70.14
2023-01-17T23:25:31.184Z,69.35
2023-01-17T23:29:18.923Z,69.62
2023-01-17T23:33:06.876Z,68.93
2023-01-17T23:36:54.667Z,68.97
2023-01-17T23:40:42.433Z,69.47
2023-01-17T23:44:30.229Z,69.21
2023-01-17T23:48:17.905Z,70.20
2023-01-17T23:52:05.618Z,69.72
2023-01-17T23:55:46.207Z,70.65
2023-01-17T23:59:33.882Z,71.28
